sensor_id;sensor_type;location;lat;lon;timestamp;temperature;humidity
79301;SHT31;68755;51.984;5.646;2023-05-19T00:01:03;12.8;58.0
79301;SHT31;68755;51.984;5.646;2023-05-19T00:03:34;12.8;58.1
79301;SHT31;68755;51.984;5.646;2023-05-19T00:06:07;12.8;58.0
79301;SHT31;68755;51.984;5.646;2023-05-19T00:08:38;12.8;57.9
79301;SHT31;68755;51.984;5.646;2023-05-19T00:11:08;12.8;58.2
79301;SHT31;68755;51.984;5.646;2023-05-19T00:13:38;12.8;58.0
79301;SHT31;68755;51.984;5.646;2023-05-19T00:16:08;12.8;57.9
79301;SHT31;68755;51.984;5.646;2023-05-19T00:18:38;12.8;57.8
79301;SHT31;68755;51.984;5.646;2023-05-19T00:21:08;12.8;58.1
79301;SHT31;68755;51.984;5.646;2023-05-19T00:23:38;12.8;57.9
79301;SHT31;68755;51.984;5.646;2023-05-19T00:26:08;12.7;58.0
79301;SHT31;68755;51.984;5.646;2023-05-19T00:28:39;12.7;58.2
79301;SHT31;68755;51.984;5.646;2023-05-19T00:31:09;12.7;58.2
79301;SHT31;68755;51.984;5.646;2023-05-19T00:33:39;12.6;58.5
79301;SHT31;68755;51.984;5.646;2023-05-19T00:36:09;12.6;58.6
79301;SHT31;68755;51.984;5.646;2023-05-19T00:38:38;12.6;58.6
79301;SHT31;68755;51.984;5.646;2023-05-19T00:41:08;12.5;58.7
79301;SHT31;68755;51.984;5.646;2023-05-19T00:43:38;12.5;58.9
79301;SHT31;68755;51.984;5.646;2023-05-19T00:46:08;12.5;59.0
79301;SHT31;68755;51.984;5.646;2023-05-19T00:48:37;12.4;59.4
79301;SHT31;68755;51.984;5.646;2023-05-19T00:51:07;12.4;59.4
79301;SHT31;68755;51.984;5.646;2023-05-19T00:53:41;12.4;59.7
79301;SHT31;68755;51.984;5.646;2023-05-19T00:56:15;12.4;59.8
79301;SHT31;68755;51.984;5.646;2023-05-19T00:58:45;12.3;60.0
79301;SHT31;68755;51.984;5.646;2023-05-19T01:01:16;12.3;60.0
79301;SHT31;68755;51.984;5.646;2023-05-19T01:03:50;12.3;60.0
79301;SHT31;68755;51.984;5.646;2023-05-19T01:06:21;12.3;60.0
79301;SHT31;68755;51.984;5.646;2023-05-19T01:08:52;12.2;60.0
79301;SHT31;68755;51.984;5.646;2023-05-19T01:11:23;12.2;60.3
79301;SHT31;68755;51.984;5.646;2023-05-19T01:13:53;12.2;60.3
79301;SHT31;68755;51.984;5.646;2023-05-19T01:16:28;12.2;60.5
79301;SHT31;68755;51.984;5.646;2023-05-19T01:19:09;12.2;60.4
79301;SHT31;68755;51.984;5.646;2023-05-19T01:23:16;12.1;60.6
79301;SHT31;68755;51.984;5.646;2023-05-19T01:26:38;12.1;60.8
79301;SHT31;68755;51.984;5.646;2023-05-19T01:29:35;12.1;60.9
79301;SHT31;68755;51.984;5.646;2023-05-19T01:32:08;12.1;60.7
79301;SHT31;68755;51.984;5.646;2023-05-19T01:34:42;12.0;60.9
79301;SHT31;68755;51.984;5.646;2023-05-19T01:37:14;12.0;60.8
79301;SHT31;68755;51.984;5.646;2023-05-19T01:39:45;12.0;61.0
79301;SHT31;68755;51.984;5.646;2023-05-19T01:42:17;12.0;61.2
79301;SHT31;68755;51.984;5.646;2023-05-19T01:44:48;11.9;61.2
79301;SHT31;68755;51.984;5.646;2023-05-19T01:47:18;11.9;61.3
79301;SHT31;68755;51.984;5.646;2023-05-19T01:49:47;11.9;61.6
79301;SHT31;68755;51.984;5.646;2023-05-19T01:52:17;11.9;61.6
79301;SHT31;68755;51.984;5.646;2023-05-19T01:54:47;11.9;61.7
79301;SHT31;68755;51.984;5.646;2023-05-19T01:57:26;11.8;61.6
79301;SHT31;68755;51.984;5.646;2023-05-19T02:00:05;11.8;61.7
79301;SHT31;68755;51.984;5.646;2023-05-19T02:02:47;11.8;61.7
79301;SHT31;68755;51.984;5.646;2023-05-19T02:05:25;11.8;61.9
79301;SHT31;68755;51.984;5.646;2023-05-19T02:08:08;11.8;61.9
79301;SHT31;68755;51.984;5.646;2023-05-19T02:10:44;11.7;62.1
79301;SHT31;68755;51.984;5.646;2023-05-19T02:13:23;11.7;62.1
79301;SHT31;68755;51.984;5.646;2023-05-19T02:15:58;11.7;62.4
79301;SHT31;68755;51.984;5.646;2023-05-19T02:18:31;11.7;62.4
79301;SHT31;68755;51.984;5.646;2023-05-19T02:21:01;11.7;62.5
79301;SHT31;68755;51.984;5.646;2023-05-19T02:23:33;11.7;62.7
79301;SHT31;68755;51.984;5.646;2023-05-19T02:26:02;11.6;62.7
79301;SHT31;68755;51.984;5.646;2023-05-19T02:28:32;11.6;62.8
79301;SHT31;68755;51.984;5.646;2023-05-19T02:31:03;11.6;63.1
79301;SHT31;68755;51.984;5.646;2023-05-19T02:33:35;11.5;63.2
79301;SHT31;68755;51.984;5.646;2023-05-19T02:36:05;11.5;63.2
79301;SHT31;68755;51.984;5.646;2023-05-19T02:38:35;11.5;63.3
79301;SHT31;68755;51.984;5.646;2023-05-19T02:41:04;11.5;63.4
79301;SHT31;68755;51.984;5.646;2023-05-19T02:43:34;11.5;63.6
79301;SHT31;68755;51.984;5.646;2023-05-19T02:46:04;11.4;63.7
79301;SHT31;68755;51.984;5.646;2023-05-19T02:48:34;11.4;63.6
79301;SHT31;68755;51.984;5.646;2023-05-19T02:51:03;11.4;63.8
79301;SHT31;68755;51.984;5.646;2023-05-19T02:53:33;11.4;63.9
79301;SHT31;68755;51.984;5.646;2023-05-19T02:56:03;11.4;64.1
79301;SHT31;68755;51.984;5.646;2023-05-19T02:58:33;11.4;64.1
79301;SHT31;68755;51.984;5.646;2023-05-19T03:01:02;11.3;64.2
79301;SHT31;68755;51.984;5.646;2023-05-19T03:03:32;11.3;64.3
79301;SHT31;68755;51.984;5.646;2023-05-19T03:06:01;11.3;64.3
79301;SHT31;68755;51.984;5.646;2023-05-19T03:08:33;11.3;64.4
79301;SHT31;68755;51.984;5.646;2023-05-19T03:11:02;11.3;64.4
79301;SHT31;68755;51.984;5.646;2023-05-19T03:13:32;11.2;64.6
79301;SHT31;68755;51.984;5.646;2023-05-19T03:16:02;11.2;64.7
79301;SHT31;68755;51.984;5.646;2023-05-19T03:18:34;11.2;64.8
79301;SHT31;68755;51.984;5.646;2023-05-19T03:21:04;11.2;64.9
79301;SHT31;68755;51.984;5.646;2023-05-19T03:23:33;11.2;65.2
79301;SHT31;68755;51.984;5.646;2023-05-19T03:26:03;11.2;65.4
79301;SHT31;68755;51.984;5.646;2023-05-19T03:28:33;11.2;65.3
79301;SHT31;68755;51.984;5.646;2023-05-19T03:31:02;11.1;65.4
79301;SHT31;68755;51.984;5.646;2023-05-19T03:33:32;11.1;65.6
79301;SHT31;68755;51.984;5.646;2023-05-19T03:36:02;11.1;65.4
79301;SHT31;68755;51.984;5.646;2023-05-19T03:38:32;11.1;65.6
79301;SHT31;68755;51.984;5.646;2023-05-19T03:41:02;11.1;65.6
79301;SHT31;68755;51.984;5.646;2023-05-19T03:43:32;11.1;65.7
79301;SHT31;68755;51.984;5.646;2023-05-19T03:46:01;11.1;65.7
79301;SHT31;68755;51.984;5.646;2023-05-19T03:48:31;11.1;65.8
79301;SHT31;68755;51.984;5.646;2023-05-19T03:51:00;11.1;65.8
79301;SHT31;68755;51.984;5.646;2023-05-19T03:53:30;11.1;66.0
79301;SHT31;68755;51.984;5.646;2023-05-19T03:56:00;11.1;65.9
79301;SHT31;68755;51.984;5.646;2023-05-19T03:58:30;11.1;65.9
79301;SHT31;68755;51.984;5.646;2023-05-19T04:00:59;11.1;66.0
79301;SHT31;68755;51.984;5.646;2023-05-19T04:03:29;11.1;65.8
79301;SHT31;68755;51.984;5.646;2023-05-19T04:05:59;11.1;66.0
79301;SHT31;68755;51.984;5.646;2023-05-19T04:08:29;11.1;66.1
79301;SHT31;68755;51.984;5.646;2023-05-19T04:10:58;11.0;66.1
79301;SHT31;68755;51.984;5.646;2023-05-19T04:13:28;11.0;66.2
79301;SHT31;68755;51.984;5.646;2023-05-19T04:15:58;11.0;66.1
79301;SHT31;68755;51.984;5.646;2023-05-19T04:18:28;11.0;66.3
79301;SHT31;68755;51.984;5.646;2023-05-19T04:20:59;11.0;66.4
79301;SHT31;68755;51.984;5.646;2023-05-19T04:23:29;10.9;66.6
79301;SHT31;68755;51.984;5.646;2023-05-19T04:25:59;10.9;66.5
79301;SHT31;68755;51.984;5.646;2023-05-19T04:28:30;10.9;66.7
79301;SHT31;68755;51.984;5.646;2023-05-19T04:31:02;10.9;67.0
79301;SHT31;68755;51.984;5.646;2023-05-19T04:33:37;10.9;67.1
79301;SHT31;68755;51.984;5.646;2023-05-19T04:36:07;10.9;67.1
79301;SHT31;68755;51.984;5.646;2023-05-19T04:38:38;10.9;67.2
79301;SHT31;68755;51.984;5.646;2023-05-19T04:41:08;10.9;67.3
79301;SHT31;68755;51.984;5.646;2023-05-19T04:43:38;10.9;67.4
79301;SHT31;68755;51.984;5.646;2023-05-19T04:46:11;11.0;67.2
79301;SHT31;68755;51.984;5.646;2023-05-19T04:48:43;11.0;67.3
79301;SHT31;68755;51.984;5.646;2023-05-19T04:51:12;11.0;67.0
79301;SHT31;68755;51.984;5.646;2023-05-19T04:53:42;11.1;67.0
79301;SHT31;68755;51.984;5.646;2023-05-19T04:56:12;11.1;66.9
79301;SHT31;68755;51.984;5.646;2023-05-19T04:58:42;11.1;66.8
79301;SHT31;68755;51.984;5.646;2023-05-19T05:01:11;11.1;66.8
79301;SHT31;68755;51.984;5.646;2023-05-19T05:03:42;11.1;67.1
79301;SHT31;68755;51.984;5.646;2023-05-19T05:06:13;11.1;66.8
79301;SHT31;68755;51.984;5.646;2023-05-19T05:08:44;11.2;66.8
79301;SHT31;68755;51.984;5.646;2023-05-19T05:11:16;11.2;67.1
79301;SHT31;68755;51.984;5.646;2023-05-19T05:13:46;11.2;66.9
79301;SHT31;68755;51.984;5.646;2023-05-19T05:16:19;11.2;67.0
79301;SHT31;68755;51.984;5.646;2023-05-19T05:18:49;11.2;66.6
79301;SHT31;68755;51.984;5.646;2023-05-19T05:21:19;11.3;66.7
79301;SHT31;68755;51.984;5.646;2023-05-19T05:23:50;11.3;66.9
79301;SHT31;68755;51.984;5.646;2023-05-19T05:26:21;11.3;66.6
79301;SHT31;68755;51.984;5.646;2023-05-19T05:28:51;11.3;66.9
79301;SHT31;68755;51.984;5.646;2023-05-19T05:31:21;11.3;67.0
79301;SHT31;68755;51.984;5.646;2023-05-19T05:33:51;11.3;66.8
79301;SHT31;68755;51.984;5.646;2023-05-19T05:36:20;11.3;66.7
79301;SHT31;68755;51.984;5.646;2023-05-19T05:38:50;11.4;66.8
79301;SHT31;68755;51.984;5.646;2023-05-19T05:41:19;11.4;66.4
79301;SHT31;68755;51.984;5.646;2023-05-19T05:43:49;11.4;66.9
79301;SHT31;68755;51.984;5.646;2023-05-19T05:46:19;11.4;67.4
79301;SHT31;68755;51.984;5.646;2023-05-19T05:48:49;11.4;67.4
79301;SHT31;68755;51.984;5.646;2023-05-19T05:51:20;11.5;67.2
79301;SHT31;68755;51.984;5.646;2023-05-19T05:53:52;11.5;66.2
79301;SHT31;68755;51.984;5.646;2023-05-19T05:56:23;11.5;66.7
79301;SHT31;68755;51.984;5.646;2023-05-19T05:58:53;11.6;66.4
79301;SHT31;68755;51.984;5.646;2023-05-19T06:01:23;11.6;66.0
79301;SHT31;68755;51.984;5.646;2023-05-19T06:03:52;11.6;65.7
79301;SHT31;68755;51.984;5.646;2023-05-19T06:06:22;11.7;66.3
79301;SHT31;68755;51.984;5.646;2023-05-19T06:08:52;11.7;65.9
79301;SHT31;68755;51.984;5.646;2023-05-19T06:11:24;11.8;65.8
79301;SHT31;68755;51.984;5.646;2023-05-19T06:13:53;11.8;65.7
79301;SHT31;68755;51.984;5.646;2023-05-19T06:16:23;11.9;64.7
79301;SHT31;68755;51.984;5.646;2023-05-19T06:18:52;11.9;64.4
79301;SHT31;68755;51.984;5.646;2023-05-19T06:21:22;11.9;63.8
79301;SHT31;68755;51.984;5.646;2023-05-19T06:23:52;12.0;64.1
79301;SHT31;68755;51.984;5.646;2023-05-19T06:26:21;12.0;64.5
79301;SHT31;68755;51.984;5.646;2023-05-19T06:28:51;12.1;64.2
79301;SHT31;68755;51.984;5.646;2023-05-19T06:31:21;12.1;65.1
79301;SHT31;68755;51.984;5.646;2023-05-19T06:33:52;12.2;64.1
79301;SHT31;68755;51.984;5.646;2023-05-19T06:36:22;12.3;64.1
79301;SHT31;68755;51.984;5.646;2023-05-19T06:38:51;12.3;63.4
79301;SHT31;68755;51.984;5.646;2023-05-19T06:41:21;12.4;62.5
79301;SHT31;68755;51.984;5.646;2023-05-19T06:43:51;12.4;61.8
79301;SHT31;68755;51.984;5.646;2023-05-19T06:46:20;12.5;62.0
79301;SHT31;68755;51.984;5.646;2023-05-19T06:48:50;12.6;61.9
79301;SHT31;68755;51.984;5.646;2023-05-19T06:51:19;12.6;59.8
79301;SHT31;68755;51.984;5.646;2023-05-19T06:53:50;12.7;59.4
79301;SHT31;68755;51.984;5.646;2023-05-19T06:56:21;12.8;60.0
79301;SHT31;68755;51.984;5.646;2023-05-19T06:58:51;12.8;59.4
79301;SHT31;68755;51.984;5.646;2023-05-19T07:01:21;12.9;58.5
79301;SHT31;68755;51.984;5.646;2023-05-19T07:03:52;13.0;57.9
79301;SHT31;68755;51.984;5.646;2023-05-19T07:06:22;13.1;58.9
79301;SHT31;68755;51.984;5.646;2023-05-19T07:08:52;13.1;57.1
79301;SHT31;68755;51.984;5.646;2023-05-19T07:11:22;13.2;56.9
79301;SHT31;68755;51.984;5.646;2023-05-19T07:13:52;13.3;55.9
79301;SHT31;68755;51.984;5.646;2023-05-19T07:16:22;13.4;55.4
79301;SHT31;68755;51.984;5.646;2023-05-19T07:18:51;13.4;55.5
79301;SHT31;68755;51.984;5.646;2023-05-19T07:21:21;13.5;56.0
79301;SHT31;68755;51.984;5.646;2023-05-19T07:23:51;13.6;55.8
79301;SHT31;68755;51.984;5.646;2023-05-19T07:26:20;13.7;54.9
79301;SHT31;68755;51.984;5.646;2023-05-19T07:28:50;13.8;54.4
79301;SHT31;68755;51.984;5.646;2023-05-19T07:31:20;13.9;54.8
79301;SHT31;68755;51.984;5.646;2023-05-19T07:33:52;13.9;54.2
79301;SHT31;68755;51.984;5.646;2023-05-19T07:36:22;14.0;53.7
79301;SHT31;68755;51.984;5.646;2023-05-19T07:38:52;14.1;53.7
79301;SHT31;68755;51.984;5.646;2023-05-19T07:41:22;14.2;52.7
79301;SHT31;68755;51.984;5.646;2023-05-19T07:43:52;14.2;51.8
79301;SHT31;68755;51.984;5.646;2023-05-19T07:46:22;14.3;51.0
79301;SHT31;68755;51.984;5.646;2023-05-19T07:48:52;14.4;51.8
79301;SHT31;68755;51.984;5.646;2023-05-19T07:51:22;14.4;51.8
79301;SHT31;68755;51.984;5.646;2023-05-19T07:53:51;14.5;51.4
79301;SHT31;68755;51.984;5.646;2023-05-19T07:56:21;14.5;51.6
79301;SHT31;68755;51.984;5.646;2023-05-19T07:58:51;14.6;50.8
79301;SHT31;68755;51.984;5.646;2023-05-19T08:01:20;14.8;51.1
79301;SHT31;68755;51.984;5.646;2023-05-19T08:03:50;14.9;51.0
79301;SHT31;68755;51.984;5.646;2023-05-19T08:06:19;15.0;50.8
79301;SHT31;68755;51.984;5.646;2023-05-19T08:08:49;15.1;49.6
79301;SHT31;68755;51.984;5.646;2023-05-19T08:11:21;15.3;49.4
79301;SHT31;68755;51.984;5.646;2023-05-19T08:13:52;15.4;49.0
79301;SHT31;68755;51.984;5.646;2023-05-19T08:16:22;15.5;47.9
79301;SHT31;68755;51.984;5.646;2023-05-19T08:18:52;15.6;47.9
79301;SHT31;68755;51.984;5.646;2023-05-19T08:21:25;15.7;47.2
79301;SHT31;68755;51.984;5.646;2023-05-19T08:23:54;15.8;47.0
79301;SHT31;68755;51.984;5.646;2023-05-19T08:26:24;15.9;45.5
79301;SHT31;68755;51.984;5.646;2023-05-19T08:28:54;16.0;45.3
79301;SHT31;68755;51.984;5.646;2023-05-19T08:31:24;16.1;45.9
79301;SHT31;68755;51.984;5.646;2023-05-19T08:33:54;16.2;44.9
79301;SHT31;68755;51.984;5.646;2023-05-19T08:36:24;16.3;44.0
79301;SHT31;68755;51.984;5.646;2023-05-19T08:38:54;16.3;44.0
79301;SHT31;68755;51.984;5.646;2023-05-19T08:41:23;16.4;45.9
79301;SHT31;68755;51.984;5.646;2023-05-19T08:43:55;16.5;44.5
79301;SHT31;68755;51.984;5.646;2023-05-19T08:46:25;16.6;44.0
79301;SHT31;68755;51.984;5.646;2023-05-19T08:49:00;16.7;44.2
79301;SHT31;68755;51.984;5.646;2023-05-19T08:51:40;16.8;43.9
79301;SHT31;68755;51.984;5.646;2023-05-19T08:54:17;16.9;42.0
79301;SHT31;68755;51.984;5.646;2023-05-19T08:56:48;17.0;41.1
79301;SHT31;68755;51.984;5.646;2023-05-19T08:59:20;17.0;41.5
79301;SHT31;68755;51.984;5.646;2023-05-19T09:01:52;17.1;41.9
79301;SHT31;68755;51.984;5.646;2023-05-19T09:04:24;17.2;41.6
79301;SHT31;68755;51.984;5.646;2023-05-19T09:06:55;17.2;38.8
79301;SHT31;68755;51.984;5.646;2023-05-19T09:09:29;17.3;40.0
79301;SHT31;68755;51.984;5.646;2023-05-19T09:12:00;17.3;39.4
79301;SHT31;68755;51.984;5.646;2023-05-19T09:14:31;17.4;40.2
79301;SHT31;68755;51.984;5.646;2023-05-19T09:17:01;17.4;40.2
79301;SHT31;68755;51.984;5.646;2023-05-19T09:19:31;17.5;40.3
79301;SHT31;68755;51.984;5.646;2023-05-19T09:22:01;17.5;40.4
79301;SHT31;68755;51.984;5.646;2023-05-19T09:24:33;17.6;40.1
79301;SHT31;68755;51.984;5.646;2023-05-19T09:27:02;17.6;39.7
79301;SHT31;68755;51.984;5.646;2023-05-19T09:29:34;17.7;40.5
79301;SHT31;68755;51.984;5.646;2023-05-19T09:32:05;17.7;39.5
79301;SHT31;68755;51.984;5.646;2023-05-19T09:34:39;17.7;40.2
79301;SHT31;68755;51.984;5.646;2023-05-19T09:37:11;17.7;39.7
79301;SHT31;68755;51.984;5.646;2023-05-19T09:39:43;17.8;40.1
79301;SHT31;68755;51.984;5.646;2023-05-19T09:42:23;17.8;38.6
79301;SHT31;68755;51.984;5.646;2023-05-19T09:45:00;17.8;40.0
79301;SHT31;68755;51.984;5.646;2023-05-19T09:47:34;17.8;39.2
79301;SHT31;68755;51.984;5.646;2023-05-19T09:50:07;17.9;39.2
79301;SHT31;68755;51.984;5.646;2023-05-19T09:52:37;17.9;39.7
79301;SHT31;68755;51.984;5.646;2023-05-19T09:55:11;18.0;38.7
79301;SHT31;68755;51.984;5.646;2023-05-19T09:57:44;18.0;37.3
79301;SHT31;68755;51.984;5.646;2023-05-19T10:00:14;18.1;37.8
79301;SHT31;68755;51.984;5.646;2023-05-19T10:02:45;18.1;38.0
79301;SHT31;68755;51.984;5.646;2023-05-19T10:05:17;18.1;37.8
79301;SHT31;68755;51.984;5.646;2023-05-19T10:07:49;18.2;37.0
79301;SHT31;68755;51.984;5.646;2023-05-19T10:10:21;18.2;38.1
79301;SHT31;68755;51.984;5.646;2023-05-19T10:12:51;18.2;38.5
79301;SHT31;68755;51.984;5.646;2023-05-19T10:15:24;18.2;38.1
79301;SHT31;68755;51.984;5.646;2023-05-19T10:17:55;18.2;38.8
79301;SHT31;68755;51.984;5.646;2023-05-19T10:20:28;18.3;38.8
79301;SHT31;68755;51.984;5.646;2023-05-19T10:22:57;18.3;38.9
79301;SHT31;68755;51.984;5.646;2023-05-19T10:25:30;18.3;38.3
79301;SHT31;68755;51.984;5.646;2023-05-19T10:28:04;18.4;37.2
79301;SHT31;68755;51.984;5.646;2023-05-19T10:30:39;18.4;38.1
79301;SHT31;68755;51.984;5.646;2023-05-19T10:33:13;18.5;37.5
79301;SHT31;68755;51.984;5.646;2023-05-19T10:36:04;18.5;37.5
79301;SHT31;68755;51.984;5.646;2023-05-19T10:38:41;18.6;38.4
79301;SHT31;68755;51.984;5.646;2023-05-19T10:41:23;18.6;37.7
79301;SHT31;68755;51.984;5.646;2023-05-19T10:44:05;18.6;38.6
79301;SHT31;68755;51.984;5.646;2023-05-19T10:46:39;18.7;37.2
79301;SHT31;68755;51.984;5.646;2023-05-19T10:49:09;18.7;38.5
79301;SHT31;68755;51.984;5.646;2023-05-19T10:51:39;18.8;39.4
79301;SHT31;68755;51.984;5.646;2023-05-19T10:54:11;18.8;37.9
79301;SHT31;68755;51.984;5.646;2023-05-19T10:56:44;18.9;38.1
79301;SHT31;68755;51.984;5.646;2023-05-19T10:59:32;18.9;38.2
79301;SHT31;68755;51.984;5.646;2023-05-19T11:02:04;19.0;36.9
79301;SHT31;68755;51.984;5.646;2023-05-19T11:04:45;19.0;38.0
79301;SHT31;68755;51.984;5.646;2023-05-19T11:07:19;19.1;37.0
79301;SHT31;68755;51.984;5.646;2023-05-19T11:09:51;19.1;37.1
79301;SHT31;68755;51.984;5.646;2023-05-19T11:12:22;19.2;37.5
79301;SHT31;68755;51.984;5.646;2023-05-19T11:14:53;19.2;36.4
79301;SHT31;68755;51.984;5.646;2023-05-19T11:17:24;19.2;37.2
79301;SHT31;68755;51.984;5.646;2023-05-19T11:19:55;19.3;36.4
79301;SHT31;68755;51.984;5.646;2023-05-19T11:22:26;19.3;35.8
79301;SHT31;68755;51.984;5.646;2023-05-19T11:24:56;19.3;35.4
79301;SHT31;68755;51.984;5.646;2023-05-19T11:27:28;19.3;35.4
79301;SHT31;68755;51.984;5.646;2023-05-19T11:30:00;19.3;35.5
79301;SHT31;68755;51.984;5.646;2023-05-19T11:32:34;19.3;34.8
79301;SHT31;68755;51.984;5.646;2023-05-19T11:35:06;19.3;34.9
79301;SHT31;68755;51.984;5.646;2023-05-19T11:37:36;19.3;35.8
79301;SHT31;68755;51.984;5.646;2023-05-19T11:40:07;19.4;37.2
79301;SHT31;68755;51.984;5.646;2023-05-19T11:42:37;19.4;34.4
79301;SHT31;68755;51.984;5.646;2023-05-19T11:45:08;19.5;35.2
79301;SHT31;68755;51.984;5.646;2023-05-19T11:47:38;19.5;35.5
79301;SHT31;68755;51.984;5.646;2023-05-19T11:50:09;19.5;34.3
79301;SHT31;68755;51.984;5.646;2023-05-19T11:52:43;19.5;35.5
79301;SHT31;68755;51.984;5.646;2023-05-19T11:55:16;19.6;34.6
79301;SHT31;68755;51.984;5.646;2023-05-19T11:58:01;19.6;35.2
79301;SHT31;68755;51.984;5.646;2023-05-19T12:00:35;19.6;34.6
79301;SHT31;68755;51.984;5.646;2023-05-19T12:03:06;19.7;34.1
79301;SHT31;68755;51.984;5.646;2023-05-19T12:05:41;19.7;34.2
79301;SHT31;68755;51.984;5.646;2023-05-19T12:08:12;19.7;34.1
79301;SHT31;68755;51.984;5.646;2023-05-19T12:10:42;19.8;34.8
79301;SHT31;68755;51.984;5.646;2023-05-19T12:13:12;19.8;35.2
79301;SHT31;68755;51.984;5.646;2023-05-19T12:15:43;19.9;35.4
79301;SHT31;68755;51.984;5.646;2023-05-19T12:18:12;19.9;33.8
79301;SHT31;68755;51.984;5.646;2023-05-19T12:20:42;19.9;33.5
79301;SHT31;68755;51.984;5.646;2023-05-19T12:23:13;20.0;32.5
79301;SHT31;68755;51.984;5.646;2023-05-19T12:25:43;20.0;33.4
79301;SHT31;68755;51.984;5.646;2023-05-19T12:28:15;20.0;34.4
79301;SHT31;68755;51.984;5.646;2023-05-19T12:30:49;20.0;33.7
79301;SHT31;68755;51.984;5.646;2023-05-19T12:33:20;20.0;33.3
79301;SHT31;68755;51.984;5.646;2023-05-19T12:35:50;20.1;33.3
79301;SHT31;68755;51.984;5.646;2023-05-19T12:38:21;20.1;32.8
79301;SHT31;68755;51.984;5.646;2023-05-19T12:40:51;20.1;31.2
79301;SHT31;68755;51.984;5.646;2023-05-19T12:43:22;20.2;32.1
79301;SHT31;68755;51.984;5.646;2023-05-19T12:45:54;20.2;32.2
79301;SHT31;68755;51.984;5.646;2023-05-19T12:48:24;20.2;33.5
79301;SHT31;68755;51.984;5.646;2023-05-19T12:50:53;20.2;32.6
79301;SHT31;68755;51.984;5.646;2023-05-19T12:53:25;20.3;31.9
79301;SHT31;68755;51.984;5.646;2023-05-19T12:55:57;20.3;32.1
79301;SHT31;68755;51.984;5.646;2023-05-19T12:58:27;20.3;32.6
79301;SHT31;68755;51.984;5.646;2023-05-19T13:00:58;20.3;32.4
79301;SHT31;68755;51.984;5.646;2023-05-19T13:03:28;20.4;32.7
79301;SHT31;68755;51.984;5.646;2023-05-19T13:05:57;20.4;33.8
79301;SHT31;68755;51.984;5.646;2023-05-19T13:08:28;20.5;34.0
79301;SHT31;68755;51.984;5.646;2023-05-19T13:10:57;20.5;32.9
79301;SHT31;68755;51.984;5.646;2023-05-19T13:13:29;20.6;33.7
79301;SHT31;68755;51.984;5.646;2023-05-19T13:15:59;20.6;32.2
79301;SHT31;68755;51.984;5.646;2023-05-19T13:18:28;20.6;32.3
79301;SHT31;68755;51.984;5.646;2023-05-19T13:20:58;20.6;31.6
79301;SHT31;68755;51.984;5.646;2023-05-19T13:23:28;20.7;32.8
79301;SHT31;68755;51.984;5.646;2023-05-19T13:26:00;20.7;33.2
79301;SHT31;68755;51.984;5.646;2023-05-19T13:28:31;20.7;32.6
79301;SHT31;68755;51.984;5.646;2023-05-19T13:31:01;20.7;32.7
79301;SHT31;68755;51.984;5.646;2023-05-19T13:33:31;20.7;32.3
79301;SHT31;68755;51.984;5.646;2023-05-19T13:36:00;20.7;32.4
79301;SHT31;68755;51.984;5.646;2023-05-19T13:38:32;20.7;32.3
79301;SHT31;68755;51.984;5.646;2023-05-19T13:41:02;20.7;33.0
79301;SHT31;68755;51.984;5.646;2023-05-19T13:43:32;20.7;33.7
79301;SHT31;68755;51.984;5.646;2023-05-19T13:46:02;20.7;32.1
79301;SHT31;68755;51.984;5.646;2023-05-19T13:48:32;20.8;32.7
79301;SHT31;68755;51.984;5.646;2023-05-19T13:51:02;20.8;32.9
79301;SHT31;68755;51.984;5.646;2023-05-19T13:53:31;20.8;32.7
79301;SHT31;68755;51.984;5.646;2023-05-19T13:56:01;20.8;34.1
79301;SHT31;68755;51.984;5.646;2023-05-19T13:58:31;20.8;33.6
79301;SHT31;68755;51.984;5.646;2023-05-19T14:01:01;20.9;33.2
79301;SHT31;68755;51.984;5.646;2023-05-19T14:03:31;20.9;33.1
79301;SHT31;68755;51.984;5.646;2023-05-19T14:06:02;20.9;33.7
79301;SHT31;68755;51.984;5.646;2023-05-19T14:08:34;20.8;33.5
79301;SHT31;68755;51.984;5.646;2023-05-19T14:11:04;20.8;33.1
79301;SHT31;68755;51.984;5.646;2023-05-19T14:13:33;20.8;34.0
79301;SHT31;68755;51.984;5.646;2023-05-19T14:16:04;20.8;34.0
79301;SHT31;68755;51.984;5.646;2023-05-19T14:18:33;20.8;34.2
79301;SHT31;68755;51.984;5.646;2023-05-19T14:21:03;20.8;34.0
79301;SHT31;68755;51.984;5.646;2023-05-19T14:23:33;20.8;33.5
79301;SHT31;68755;51.984;5.646;2023-05-19T14:26:03;20.8;33.4
79301;SHT31;68755;51.984;5.646;2023-05-19T14:28:33;20.8;33.8
79301;SHT31;68755;51.984;5.646;2023-05-19T14:31:03;20.8;34.0
79301;SHT31;68755;51.984;5.646;2023-05-19T14:33:33;20.8;33.5
79301;SHT31;68755;51.984;5.646;2023-05-19T14:36:03;20.8;33.1
79301;SHT31;68755;51.984;5.646;2023-05-19T14:38:33;20.8;33.8
79301;SHT31;68755;51.984;5.646;2023-05-19T14:41:04;20.8;33.6
79301;SHT31;68755;51.984;5.646;2023-05-19T14:43:34;20.8;33.0
79301;SHT31;68755;51.984;5.646;2023-05-19T14:46:04;20.8;33.6
79301;SHT31;68755;51.984;5.646;2023-05-19T14:48:34;20.8;33.6
79301;SHT31;68755;51.984;5.646;2023-05-19T14:51:04;20.8;33.6
79301;SHT31;68755;51.984;5.646;2023-05-19T14:53:34;20.8;33.1
79301;SHT31;68755;51.984;5.646;2023-05-19T14:56:04;20.8;33.2
79301;SHT31;68755;51.984;5.646;2023-05-19T14:58:34;20.8;34.0
79301;SHT31;68755;51.984;5.646;2023-05-19T15:01:04;20.8;34.8
79301;SHT31;68755;51.984;5.646;2023-05-19T15:03:33;20.8;33.7
79301;SHT31;68755;51.984;5.646;2023-05-19T15:06:07;20.8;34.7
79301;SHT31;68755;51.984;5.646;2023-05-19T15:08:37;20.8;33.8
79301;SHT31;68755;51.984;5.646;2023-05-19T15:11:07;20.8;33.5
79301;SHT31;68755;51.984;5.646;2023-05-19T15:13:37;20.8;33.4
79301;SHT31;68755;51.984;5.646;2023-05-19T15:16:09;20.8;34.0
79301;SHT31;68755;51.984;5.646;2023-05-19T15:18:40;20.8;34.0
79301;SHT31;68755;51.984;5.646;2023-05-19T15:21:10;20.8;33.8
79301;SHT31;68755;51.984;5.646;2023-05-19T15:23:40;20.8;33.0
79301;SHT31;68755;51.984;5.646;2023-05-19T15:26:10;20.7;33.4
79301;SHT31;68755;51.984;5.646;2023-05-19T15:28:39;20.7;33.2
79301;SHT31;68755;51.984;5.646;2023-05-19T15:31:09;20.7;33.3
79301;SHT31;68755;51.984;5.646;2023-05-19T15:33:40;20.7;33.6
79301;SHT31;68755;51.984;5.646;2023-05-19T15:36:10;20.7;33.7
79301;SHT31;68755;51.984;5.646;2023-05-19T15:38:42;20.7;33.9
79301;SHT31;68755;51.984;5.646;2023-05-19T15:41:14;20.7;34.6
79301;SHT31;68755;51.984;5.646;2023-05-19T15:43:44;20.7;34.2
79301;SHT31;68755;51.984;5.646;2023-05-19T15:46:14;20.7;34.5
79301;SHT31;68755;51.984;5.646;2023-05-19T15:48:45;20.7;33.9
79301;SHT31;68755;51.984;5.646;2023-05-19T15:51:15;20.7;33.7
79301;SHT31;68755;51.984;5.646;2023-05-19T15:53:45;20.7;33.7
79301;SHT31;68755;51.984;5.646;2023-05-19T15:56:15;20.7;33.2
79301;SHT31;68755;51.984;5.646;2023-05-19T15:58:46;20.7;33.3
79301;SHT31;68755;51.984;5.646;2023-05-19T16:01:16;20.7;32.7
79301;SHT31;68755;51.984;5.646;2023-05-19T16:03:49;20.7;33.2
79301;SHT31;68755;51.984;5.646;2023-05-19T16:06:19;20.7;33.3
79301;SHT31;68755;51.984;5.646;2023-05-19T16:08:49;20.7;32.7
79301;SHT31;68755;51.984;5.646;2023-05-19T16:11:18;20.7;33.1
79301;SHT31;68755;51.984;5.646;2023-05-19T16:13:48;20.7;33.7
79301;SHT31;68755;51.984;5.646;2023-05-19T16:16:18;20.7;33.1
79301;SHT31;68755;51.984;5.646;2023-05-19T16:18:48;20.8;33.4
79301;SHT31;68755;51.984;5.646;2023-05-19T16:21:18;20.8;33.2
79301;SHT31;68755;51.984;5.646;2023-05-19T16:23:48;20.8;33.0
79301;SHT31;68755;51.984;5.646;2023-05-19T16:26:17;20.8;32.9
79301;SHT31;68755;51.984;5.646;2023-05-19T16:28:48;20.8;33.0